Weather at Sportski Aerodrom Zalužani

Public forecast

Using degrees Celsius for public forecast. Weather courtesy of forecast.io.

Closest aviation weather report (METAR) to Sportski Aerodrom Zalužani

Closest report is Banja Luka International Airport, 6.4 nm (11.9 km) NNE.

2024/05/24 06:00 (retrieved 19 minutes ago)

LQBK 240600Z 16005KT CAVOK 17/16 Q1018 NOSIG

Closest aviation forecast (TAF) to Sportski Aerodrom Zalužani

Closest forecast is Banja Luka International Airport, 6.4 nm (11.9 km) NNE.

2024/05/24 06:06 (retrieved 13 minutes ago)

TAF LQBK 240500Z 2406/2506 VRB02KT 9999 SCT045 TX25/2413Z TN11/2504Z PROB30 TEMPO 2415/2418 VRB15KT 5000 TSRA FEW035CB SCT040 PROB30 TEMPO 2503/2506 2000 BCFG